Time;durP1;ratioP1;P1;durP2;ratioP2;P2;SDS_P1;SDS_P2;PMS_P1;PMS_P2;Temp;Humidity;BMP_temperature;BMP_pressure;BME280_temperature;BME280_humidity;BME280_pressure;Samples;Min_cycle;Max_cycle;Signal;HPM_P1;HPM_P2
2022/05/01 00:02:26;;;;;;;0.40;0.30;;;;;;;11.42;74.63;101703.81;5073047;28;20943;-65
2022/05/01 00:04:52;;;;;;;0.40;0.30;;;;;;;11.41;74.40;101708.44;5073166;28;20958;-65
2022/05/01 00:07:19;;;;;;;0.40;0.30;;;;;;;11.36;73.30;101706.56;5073286;28;20445;-65
2022/05/01 00:09:45;;;;;;;0.40;0.30;;;;;;;11.20;73.50;101698.78;5073374;28;20477;-65
2022/05/01 00:12:13;;;;;;;0.40;0.30;;;;;;;11.15;73.94;101701.50;5073323;28;20546;-65
2022/05/01 00:14:39;;;;;;;0.40;0.30;;;;;;;11.07;74.48;101705.63;5073568;28;20442;-65
2022/05/01 00:17:06;;;;;;;0.40;0.30;;;;;;;11.08;74.56;101705.34;5073468;28;20532;-66
2022/05/01 00:19:32;;;;;;;0.40;0.30;;;;;;;11.06;74.64;101706.69;5073332;28;20442;-67
2022/05/01 00:21:59;;;;;;;0.40;0.30;;;;;;;11.06;75.12;101701.25;5073155;28;20441;-65
2022/05/01 00:24:26;;;;;;;0.40;0.30;;;;;;;11.01;76.18;101696.69;5072753;28;20472;-65
2022/05/01 00:26:52;;;;;;;0.40;0.30;;;;;;;11.01;76.51;101685.84;5073302;28;20434;-65
2022/05/01 00:29:20;;;;;;;0.40;0.27;;;;;;;11.00;76.86;101684.22;5073180;28;20444;-65
2022/05/01 00:31:46;;;;;;;0.40;0.30;;;;;;;10.97;77.52;101698.31;5072718;28;20489;-65
2022/05/01 00:36:57;;;;;;;0.40;0.30;;;;;;;10.89;77.88;101690.78;5073127;28;20414;-65
2022/05/01 00:39:24;;;;;;;0.40;0.30;;;;;;;10.94;77.68;101701.59;5073056;28;20452;-65
2022/05/01 00:41:50;;;;;;;0.40;0.27;;;;;;;10.92;77.75;101690.19;5073096;28;20438;-65
2022/05/01 00:44:18;;;;;;;0.40;0.20;;;;;;;10.88;77.78;101685.59;5072998;28;20494;-65
2022/05/01 00:46:47;;;;;;;0.40;0.20;;;;;;;10.85;77.86;101692.41;5073140;28;20471;-65
2022/05/01 00:49:15;;;;;;;0.40;0.20;;;;;;;10.86;78.26;101686.69;5073201;28;20445;-65
2022/05/01 00:51:45;;;;;;;0.40;0.30;;;;;;;10.89;78.44;101692.66;5072971;28;20487;-66
2022/05/01 00:54:13;;;;;;;0.40;0.30;;;;;;;10.81;78.71;101685.91;5073219;28;20436;-65
2022/05/01 00:56:41;;;;;;;0.40;0.30;;;;;;;10.79;76.61;101688.88;5072682;28;20939;-62
2022/05/01 00:59:09;;;;;;;0.40;0.30;;;;;;;10.70;75.39;101695.13;5072664;28;21005;-65
2022/05/01 01:01:36;;;;;;;0.40;0.30;;;;;;;10.60;75.58;101687.84;5072564;28;20470;-66
2022/05/01 01:04:05;;;;;;;0.40;0.30;;;;;;;10.48;74.95;101681.91;5072802;28;20444;-65
2022/05/01 01:06:31;;;;;;;0.40;0.30;;;;;;;10.47;75.35;101693.81;5072939;28;20441;-65
2022/05/01 01:08:58;;;;;;;0.40;0.30;;;;;;;10.38;76.07;101687.34;5072653;28;20491;-65
2022/05/01 01:11:24;;;;;;;0.40;0.20;;;;;;;10.31;76.68;101687.59;5072677;28;20481;-65
2022/05/01 01:13:51;;;;;;;0.40;0.30;;;;;;;10.27;76.06;101681.09;5072779;28;20442;-65
2022/05/01 01:16:17;;;;;;;0.40;0.30;;;;;;;10.25;77.56;101688.69;5072757;28;20494;-65
2022/05/01 01:18:45;;;;;;;0.40;0.30;;;;;;;10.21;78.45;101688.38;5072759;28;20445;-66
2022/05/01 01:21:13;;;;;;;0.40;0.30;;;;;;;10.18;78.81;101688.13;5072798;28;20461;-65
2022/05/01 01:23:42;;;;;;;0.40;0.30;;;;;;;10.07;79.94;101681.91;5072668;28;20437;-65
2022/05/01 01:26:10;;;;;;;0.40;0.30;;;;;;;9.99;80.67;101685.13;5072558;28;20432;-65
2022/05/01 01:28:38;;;;;;;0.40;0.30;;;;;;;10.02;80.74;101684.59;5072684;28;20495;-65
2022/05/01 01:33:51;;;;;;;0.40;0.30;;;;;;;9.97;80.61;101687.31;5072852;28;20413;-65
2022/05/01 01:36:22;;;;;;;0.40;0.30;;;;;;;9.96;80.60;101696.50;5076294;28;20870;-65
2022/05/01 01:38:49;;;;;;;0.50;0.30;;;;;;;9.84;81.33;101694.06;5076244;28;20524;-65
2022/05/01 01:41:18;;;;;;;1.10;1.00;;;;;;;9.74;81.89;101696.72;5076290;28;20511;-65
2022/05/01 01:43:46;;;;;;;0.40;0.30;;;;;;;9.70;82.46;101701.06;5076219;28;20492;-66
2022/05/01 01:46:13;;;;;;;0.40;0.30;;;;;;;9.69;81.58;101699.44;5076128;28;20438;-65
2022/05/01 01:48:39;;;;;;;0.40;0.30;;;;;;;9.67;80.20;101698.91;5076225;28;20445;-63
2022/05/01 01:51:06;;;;;;;0.40;0.30;;;;;;;9.59;78.83;101698.31;5075971;28;20488;-64
2022/05/01 01:53:36;;;;;;;0.40;0.30;;;;;;;9.44;78.71;101695.59;5075988;28;20468;-65
2022/05/01 01:56:04;;;;;;;0.40;0.30;;;;;;;9.33;79.22;101702.03;5075649;28;20823;-64
2022/05/01 01:58:31;;;;;;;0.40;0.30;;;;;;;9.31;79.55;101707.72;5076015;28;20807;-63
2022/05/01 02:00:59;;;;;;;0.40;0.30;;;;;;;9.12;82.20;101703.88;5099394;22;20481;-70
2022/05/01 02:03:26;;;;;;;0.40;0.30;;;;;;;8.98;83.40;101703.50;5075713;28;20444;-71
2022/05/01 02:05:53;;;;;;;0.40;0.30;;;;;;;9.00;82.60;101705.97;5075697;28;20453;-71
2022/05/01 02:08:20;;;;;;;0.40;0.30;;;;;;;8.95;83.51;101708.63;5075753;28;20441;-71
2022/05/01 02:10:48;;;;;;;0.40;0.30;;;;;;;8.91;84.87;101708.34;5075623;28;20866;-71
2022/05/01 02:13:16;;;;;;;0.40;0.30;;;;;;;8.84;85.56;101703.16;5075591;28;20476;-71
2022/05/01 02:15:43;;;;;;;0.40;0.30;;;;;;;8.79;85.06;101711.25;5075634;28;20507;-72
2022/05/01 02:18:09;;;;;;;0.40;0.30;;;;;;;8.75;85.49;101698.50;5075602;28;20445;-72
2022/05/01 02:23:16;;;;;;;0.40;0.30;;;;;;;8.80;84.96;101698.53;5074244;28;20434;-72
2022/05/01 02:25:43;;;;;;;0.40;0.30;;;;;;;8.81;84.93;101695.59;5075311;28;20449;-68
2022/05/01 02:28:11;;;;;;;0.40;0.30;;;;;;;8.87;84.77;101698.31;5075594;28;20487;-68
2022/05/01 02:30:38;;;;;;;1.90;1.37;;;;;;;8.79;85.10;101694.22;5074715;28;20977;-69
2022/05/01 02:33:06;;;;;;;0.40;0.30;;;;;;;8.75;85.28;101704.72;5075029;28;20527;-71
2022/05/01 02:35:32;;;;;;;0.50;0.30;;;;;;;8.75;84.93;101696.63;5075099;28;20437;-71
2022/05/01 02:37:59;;;;;;;0.40;0.30;;;;;;;8.64;85.70;101692.25;5075099;28;20488;-70
2022/05/01 02:40:25;;;;;;;0.80;0.80;;;;;;;8.49;85.03;101690.25;5075294;28;20515;-73
2022/05/01 02:42:52;;;;;;;0.40;0.30;;;;;;;8.28;84.80;101691.16;5074978;28;20487;-68
2022/05/01 02:45:20;;;;;;;0.40;0.30;;;;;;;8.38;83.39;101693.16;5074581;28;20473;-70
2022/05/01 02:47:46;;;;;;;0.40;0.30;;;;;;;8.26;82.58;101691.41;5074596;28;20951;-72
2022/05/01 02:50:13;;;;;;;0.40;0.30;;;;;;;8.18;83.60;101688.34;5075000;28;20442;-74
2022/05/01 02:52:39;;;;;;;0.40;0.30;;;;;;;8.16;83.76;101688.63;5074738;28;20487;-73
2022/05/01 02:55:07;;;;;;;0.40;0.30;;;;;;;8.13;84.16;101694.53;5074879;28;20514;-74
2022/05/01 02:57:34;;;;;;;0.40;0.30;;;;;;;8.04;86.07;101694.19;5074771;28;20438;-74
2022/05/01 03:00:00;;;;;;;0.40;0.30;;;;;;;7.98;86.97;101687.13;5074767;28;20534;-71
2022/05/01 03:02:28;;;;;;;0.40;0.30;;;;;;;8.10;86.72;101689.63;5074295;28;20469;-73
2022/05/01 03:04:54;;;;;;;0.40;0.30;;;;;;;8.14;88.07;101693.44;5074505;28;20822;-74
2022/05/01 03:07:21;;;;;;;0.40;0.30;;;;;;;8.15;89.09;101695.09;5074595;28;20438;-73
2022/05/01 03:09:47;;;;;;;0.40;0.30;;;;;;;8.30;88.52;101692.50;5074489;28;20449;-74
2022/05/01 03:12:14;;;;;;;0.40;0.30;;;;;;;8.23;89.24;101694.59;5074016;28;20990;-74
2022/05/01 03:14:40;;;;;;;0.40;0.30;;;;;;;8.29;88.84;101687.38;5074367;28;20499;-74
2022/05/01 03:17:06;;;;;;;0.40;0.30;;;;;;;8.25;89.07;101681.69;5074411;28;20441;-74
2022/05/01 03:22:18;;;;;;;0.40;0.30;;;;;;;8.35;88.35;101689.03;5074083;28;20512;-74
2022/05/01 03:24:44;;;;;;;0.40;0.30;;;;;;;8.28;88.39;101686.56;5074156;28;20851;-73
2022/05/01 03:27:11;;;;;;;0.40;0.30;;;;;;;8.20;88.77;101681.63;5074224;28;20438;-74
2022/05/01 03:29:38;;;;;;;0.40;0.30;;;;;;;8.10;89.03;101681.53;5073832;28;20947;-74
2022/05/01 03:32:07;;;;;;;0.40;0.30;;;;;;;8.16;88.40;101688.63;5073621;28;20986;-74
2022/05/01 03:34:37;;;;;;;0.40;0.30;;;;;;;8.22;87.13;101687.59;5073709;28;20935;-74
2022/05/01 03:37:05;;;;;;;0.40;0.30;;;;;;;8.08;87.79;101689.91;5074076;28;20441;-74
2022/05/01 03:39:32;;;;;;;0.40;0.30;;;;;;;8.01;87.63;101693.88;5073958;28;20480;-74
2022/05/01 03:41:59;;;;;;;0.40;0.30;;;;;;;7.93;85.95;101692.47;5073886;28;20458;-74
2022/05/01 03:44:25;;;;;;;0.40;0.30;;;;;;;7.96;85.48;101700.03;5073549;28;20956;-74
2022/05/01 03:46:51;;;;;;;1.53;1.43;;;;;;;7.93;86.74;101697.88;5073757;28;20474;-73
2022/05/01 03:49:18;;;;;;;0.40;0.30;;;;;;;7.89;84.60;101701.34;5073457;28;20437;-74
2022/05/01 03:51:46;;;;;;;0.40;0.30;;;;;;;7.80;83.73;101688.31;5073586;28;20484;-74
2022/05/01 03:54:13;;;;;;;0.40;0.30;;;;;;;7.75;84.20;101690.97;5073895;28;20441;-74
2022/05/01 03:56:39;;;;;;;0.40;0.30;;;;;;;7.70;83.71;101692.78;5073238;28;20483;-73
2022/05/01 03:59:06;;;;;;;0.40;0.30;;;;;;;7.77;85.82;101691.50;5073625;28;20491;-73
2022/05/01 04:01:33;;;;;;;0.40;0.30;;;;;;;7.82;86.86;101691.56;5073206;28;20476;-74
2022/05/01 04:04:00;;;;;;;0.40;0.30;;;;;;;7.86;87.27;101699.94;5073571;28;20504;-73
2022/05/01 04:06:26;;;;;;;0.40;0.30;;;;;;;7.81;87.79;101692.63;5073592;28;20438;-74
2022/05/01 04:08:55;;;;;;;0.40;0.30;;;;;;;7.84;87.94;101694.81;5073491;28;20441;-73
2022/05/01 04:11:22;;;;;;;0.40;0.30;;;;;;;7.86;88.01;101691.84;5073385;28;20508;-73
2022/05/01 04:13:50;;;;;;;0.40;0.30;;;;;;;7.91;87.40;101683.81;5073317;28;20477;-73
2022/05/01 04:16:16;;;;;;;0.40;0.30;;;;;;;7.92;87.33;101690.00;5073439;28;20451;-73
2022/05/01 04:18:43;;;;;;;0.40;0.30;;;;;;;7.98;86.99;101683.63;5073362;28;20471;-71
2022/05/01 04:21:13;;;;;;;0.40;0.30;;;;;;;7.95;87.74;101689.50;5073301;28;20461;-72
2022/05/01 04:23:40;;;;;;;0.40;0.30;;;;;;;7.88;88.04;101683.50;5073413;28;20425;-71
2022/05/01 04:26:07;;;;;;;0.40;0.30;;;;;;;7.90;88.07;101687.59;5073318;28;20483;-72
2022/05/01 04:28:34;;;;;;;0.40;0.30;;;;;;;7.93;88.08;101688.97;5073231;28;20452;-71
2022/05/01 04:31:00;;;;;;;0.50;0.40;;;;;;;7.89;87.29;101695.94;5073180;28;20461;-72
2022/05/01 04:33:27;;;;;;;0.40;0.30;;;;;;;7.96;86.64;101694.66;5073134;28;20485;-71
2022/05/01 04:35:54;;;;;;;0.40;0.30;;;;;;;8.00;85.99;101692.25;5072871;28;20973;-72
2022/05/01 04:38:23;;;;;;;0.40;0.30;;;;;;;8.08;84.81;101694.47;5073106;28;20437;-72
2022/05/01 04:40:51;;;;;;;0.40;0.30;;;;;;;8.09;84.43;101696.09;5073079;28;20508;-72
2022/05/01 04:43:20;;;;;;;0.40;0.30;;;;;;;8.21;85.00;101696.75;5072815;28;20931;-70
2022/05/01 04:45:48;;;;;;;0.40;0.30;;;;;;;8.30;85.57;101700.59;5073021;28;20485;-71
2022/05/01 04:48:17;;;;;;;0.40;0.30;;;;;;;8.40;85.33;101708.00;5073079;28;20449;-70
2022/05/01 04:50:45;;;;;;;0.40;0.30;;;;;;;8.54;83.91;101694.84;5072990;28;20825;-71
2022/05/01 04:53:13;;;;;;;0.40;0.30;;;;;;;8.60;84.45;101701.94;5072943;28;20488;-71
2022/05/01 04:55:40;;;;;;;0.40;0.30;;;;;;;8.73;84.99;101709.59;5072960;28;20441;-71
2022/05/01 04:58:08;;;;;;;0.40;0.30;;;;;;;8.84;85.20;101705.84;5073032;28;20454;-71
2022/05/01 05:00:36;;;;;;;0.40;0.30;;;;;;;8.99;84.65;101707.03;5072744;28;20452;-70
2022/05/01 05:03:03;;;;;;;0.40;0.30;;;;;;;9.07;83.89;101717.31;5072938;28;20433;-71
2022/05/01 05:05:32;;;;;;;0.40;0.30;;;;;;;9.13;84.20;101713.59;5072967;28;20441;-71
2022/05/01 05:09:53;;;;;;;0.40;0.30;;;;;;;9.31;83.75;101713.13;5072903;28;20448;-71
2022/05/01 05:10:46;;;;;;;0.40;0.30;;;;;;;9.44;83.58;101711.00;5075980;28;20479;-71
2022/05/01 05:13:13;;;;;;;0.40;0.30;;;;;;;9.53;83.64;101707.53;5076751;28;20473;-71
2022/05/01 05:15:41;;;;;;;0.40;0.30;;;;;;;9.62;83.11;101715.13;5076685;28;20448;-72
2022/05/01 05:18:07;;;;;;;0.40;0.30;;;;;;;9.75;82.90;101717.31;5076628;28;20448;-72
2022/05/01 05:20:34;;;;;;;0.40;0.20;;;;;;;9.88;82.19;101713.28;5076669;28;20433;-72
2022/05/01 05:23:00;;;;;;;0.40;0.30;;;;;;;10.04;80.28;101721.13;5076685;28;20433;-72
2022/05/01 05:25:27;;;;;;;0.40;0.30;;;;;;;10.24;79.25;101723.09;5076495;28;20847;-72
2022/05/01 05:27:53;;;;;;;0.40;0.30;;;;;;;10.45;77.86;101725.81;5076168;28;20826;-72
2022/05/01 05:30:20;;;;;;;0.40;0.30;;;;;;;10.57;76.64;101731.72;5076467;28;20438;-72
2022/05/01 05:32:48;;;;;;;1.03;1.03;;;;;;;10.59;75.59;101726.88;5076195;28;20481;-72
2022/05/01 05:35:14;;;;;;;0.40;0.30;;;;;;;10.77;75.34;101718.16;5076313;28;20452;-72
2022/05/01 05:37:41;;;;;;;0.40;0.30;;;;;;;10.95;73.87;101719.47;5076221;28;20452;-72
2022/05/01 05:40:09;;;;;;;0.40;0.30;;;;;;;11.14;72.69;101727.00;5075938;28;20946;-72
2022/05/01 05:42:35;;;;;;;2.90;2.70;;;;;;;11.28;71.79;101733.47;5075973;28;20985;-72
2022/05/01 05:45:03;;;;;;;0.40;0.30;;;;;;;11.41;71.57;101726.63;5076159;28;20483;-71
2022/05/01 05:47:30;;;;;;;0.40;0.30;;;;;;;11.38;71.89;101736.16;5076095;28;20452;-72
2022/05/01 05:49:58;;;;;;;0.40;0.30;;;;;;;11.52;71.42;101729.03;5075812;28;21049;-72
2022/05/01 05:52:24;;;;;;;0.40;0.30;;;;;;;11.67;71.05;101741.69;5075886;28;20489;-71
2022/05/01 05:54:50;;;;;;;0.40;0.30;;;;;;;11.79;69.78;101739.47;5075685;28;20939;-72
2022/05/01 05:57:17;;;;;;;0.40;0.30;;;;;;;11.87;69.53;101740.81;5075948;28;20452;-71
2022/05/01 05:59:43;;;;;;;0.40;0.30;;;;;;;11.94;69.49;101749.44;5075895;28;20507;-72
2022/05/01 06:02:10;;;;;;;0.60;0.60;;;;;;;11.78;67.66;101745.19;5075520;28;20495;-71
2022/05/01 06:04:41;;;;;;;0.40;0.30;;;;;;;11.69;68.55;101755.81;5075789;28;20448;-70
2022/05/01 06:07:08;;;;;;;0.40;0.27;;;;;;;11.74;67.89;101741.41;5075457;28;20819;-70
2022/05/01 06:09:36;;;;;;;0.40;0.30;;;;;;;11.83;68.36;101745.97;5075712;28;20460;-71
2022/05/01 06:12:03;;;;;;;0.40;0.30;;;;;;;11.60;68.42;101749.34;5075360;28;20993;-69
2022/05/01 06:14:29;;;;;;;0.40;0.30;;;;;;;11.63;68.21;101746.88;5075613;28;20481;-70
2022/05/01 06:16:55;;;;;;;0.40;0.30;;;;;;;11.71;68.47;101737.31;5075600;28;20463;-69
2022/05/01 06:19:22;;;;;;;0.40;0.30;;;;;;;11.78;67.73;101740.56;5075304;28;20996;-71
2022/05/01 06:21:48;;;;;;;0.40;0.30;;;;;;;11.91;68.79;101746.47;5074289;28;20469;-70
2022/05/01 06:24:16;;;;;;;0.40;0.30;;;;;;;11.95;67.47;101750.25;5075594;28;20446;-70
2022/05/01 06:26:42;;;;;;;0.40;0.30;;;;;;;11.94;66.61;101754.06;5075395;28;20448;-69
2022/05/01 06:29:09;;;;;;;0.40;0.30;;;;;;;11.90;65.19;101745.66;5075381;28;20445;-69
2022/05/01 06:31:39;;;;;;;0.40;0.20;;;;;;;11.95;64.81;101755.66;5075255;28;20849;-69
2022/05/01 06:34:06;;;;;;;0.40;0.30;;;;;;;11.99;65.00;101757.53;5075242;28;20481;-69
2022/05/01 06:36:33;;;;;;;0.40;0.30;;;;;;;11.96;64.65;101757.31;5075163;28;20502;-69
2022/05/01 06:39:00;;;;;;;0.40;0.30;;;;;;;12.03;65.25;101765.94;5075205;28;20438;-69
2022/05/01 06:41:27;;;;;;;0.40;0.30;;;;;;;12.18;64.36;101767.75;5075070;28;20461;-69
2022/05/01 06:43:54;;;;;;;0.40;0.30;;;;;;;12.34;64.72;101767.34;5075073;28;20858;-69
2022/05/01 06:46:20;;;;;;;0.40;0.30;;;;;;;12.44;62.57;101768.34;5075030;28;20448;-70
2022/05/01 06:48:47;;;;;;;0.40;0.30;;;;;;;12.50;61.25;101765.34;5074983;28;20444;-69
2022/05/01 06:51:13;;;;;;;0.40;0.30;;;;;;;12.70;61.83;101775.19;5074868;28;20465;-70
2022/05/01 06:53:40;;;;;;;0.40;0.20;;;;;;;12.83;62.04;101771.00;5074522;28;20485;-69
2022/05/01 06:56:06;;;;;;;0.40;0.30;;;;;;;12.95;61.07;101771.44;5074866;28;20452;-70
2022/05/01 06:58:35;;;;;;;0.40;0.30;;;;;;;13.13;59.65;101778.03;5074749;28;20453;-71
2022/05/01 07:01:01;;;;;;;0.40;0.30;;;;;;;13.27;58.60;101767.31;5074532;28;20567;-70
2022/05/01 07:03:28;;;;;;;0.40;0.30;;;;;;;13.52;58.29;101771.66;5074371;28;20891;-69
2022/05/01 07:05:54;;;;;;;0.40;0.30;;;;;;;13.78;57.90;101767.50;5074625;28;20502;-69
2022/05/01 07:08:23;;;;;;;0.40;0.30;;;;;;;14.11;57.47;101762.91;5074604;28;20449;-69
2022/05/01 07:10:49;;;;;;;0.40;0.30;;;;;;;14.43;54.82;101763.22;5074498;28;20461;-70
2022/05/01 07:13:16;;;;;;;0.40;0.30;;;;;;;14.68;54.62;101762.03;5074559;28;20485;-70
2022/05/01 07:15:43;;;;;;;0.40;0.30;;;;;;;14.83;54.05;101759.84;5074297;28;20444;-71
2022/05/01 07:18:10;;;;;;;0.40;0.30;;;;;;;14.96;55.82;101755.50;5074395;28;20849;-70
2022/05/01 07:20:36;;;;;;;0.40;0.30;;;;;;;15.09;55.06;101762.88;5073963;28;20955;-71
2022/05/01 07:23:03;;;;;;;0.40;0.30;;;;;;;15.00;52.71;101763.91;5074313;28;20440;-70
2022/05/01 07:25:30;;;;;;;0.40;0.30;;;;;;;15.07;52.69;101764.31;5074273;28;20452;-73
2022/05/01 07:27:56;;;;;;;0.40;0.30;;;;;;;15.11;52.90;101763.41;5073875;28;20452;-73
2022/05/01 07:30:23;;;;;;;1.03;0.93;;;;;;;14.94;50.49;101765.13;5074137;28;20437;-73
2022/05/01 07:32:50;;;;;;;0.40;0.30;;;;;;;14.79;51.97;101764.28;5073596;28;20462;-73
2022/05/01 07:35:17;;;;;;;0.40;0.20;;;;;;;14.96;52.15;101765.59;5074086;28;20467;-73
2022/05/01 07:37:44;;;;;;;0.40;0.30;;;;;;;14.86;50.82;101764.69;5074016;28;20442;-74
2022/05/01 07:40:11;;;;;;;0.40;0.30;;;;;;;14.92;51.11;101764.59;5073959;28;20441;-72
2022/05/01 07:42:38;;;;;;;0.40;0.30;;;;;;;14.92;50.53;101775.50;5073777;28;20458;-73
2022/05/01 07:45:05;;;;;;;0.40;0.20;;;;;;;14.87;50.04;101769.06;5073906;28;20483;-74
2022/05/01 07:47:31;;;;;;;0.40;0.23;;;;;;;14.80;49.52;101762.38;5073582;28;20484;-73
2022/05/01 07:49:59;;;;;;;0.40;0.30;;;;;;;14.82;49.14;101769.13;5073737;28;20445;-74
2022/05/01 07:52:26;;;;;;;0.40;0.20;;;;;;;14.87;48.39;101766.34;5073809;28;20464;-73
2022/05/01 07:54:53;;;;;;;0.40;0.30;;;;;;;14.87;48.18;101766.34;5073813;28;20535;-74
2022/05/01 07:57:20;;;;;;;0.40;0.30;;;;;;;14.74;47.29;101766.28;5073592;28;20453;-75
2022/05/01 07:59:47;;;;;;;0.40;0.30;;;;;;;14.69;47.14;101769.91;5073913;28;20445;-69
2022/05/01 08:02:13;;;;;;;0.40;0.30;;;;;;;14.63;47.17;101771.91;5074532;28;20480;-69
2022/05/01 08:04:39;;;;;;;0.40;0.30;;;;;;;14.73;47.04;101765.47;5073566;28;20437;-77
2022/05/01 08:07:08;;;;;;;0.40;0.30;;;;;;;14.78;47.19;101767.31;5073694;28;20444;-75
2022/05/01 08:09:34;;;;;;;0.40;0.30;;;;;;;14.67;47.59;101772.13;5073580;28;20203;-75
2022/05/01 08:12:01;;;;;;;0.40;0.20;;;;;;;14.69;47.63;101767.19;5074865;28;20465;-77
2022/05/01 08:14:27;;;;;;;0.40;0.30;;;;;;;14.58;46.84;101780.19;5074875;28;20489;-76
2022/05/01 08:16:54;;;;;;;0.40;0.30;;;;;;;14.49;46.68;101781.19;5073174;28;20860;-74
2022/05/01 08:22:07;;;;;;;0.40;0.30;;;;;;;14.53;46.75;101776.75;5075288;28;20817;-77
2022/05/01 08:24:34;;;;;;;0.40;0.20;;;;;;;14.41;46.20;101773.63;5073633;28;20844;-73
2022/05/01 08:27:05;;;;;;;0.40;0.20;;;;;;;14.45;46.53;101774.66;5074525;28;20432;-76
2022/05/01 08:29:32;;;;;;;0.40;0.30;;;;;;;14.53;47.17;101765.84;5073467;28;20481;-77
2022/05/01 08:31:59;;;;;;;0.40;0.30;;;;;;;14.51;45.40;101771.56;5073597;28;20497;-77
2022/05/01 08:34:26;;;;;;;0.40;0.30;;;;;;;14.66;45.46;101769.72;5073208;28;20484;-76
2022/05/01 08:36:52;;;;;;;0.40;0.30;;;;;;;14.77;44.65;101771.16;5073108;28;20442;-74
2022/05/01 08:39:20;;;;;;;0.40;0.30;;;;;;;14.72;45.88;101773.97;5073164;28;20858;-74
2022/05/01 08:41:46;;;;;;;0.40;0.30;;;;;;;14.72;47.74;101768.50;5073002;28;20464;-74
2022/05/01 08:44:16;;;;;;;0.40;0.30;;;;;;;14.86;48.92;101777.53;5072427;28;20490;-74
2022/05/01 08:46:56;;;;;;;0.40;0.30;;;;;;;14.97;49.86;101778.97;5073092;28;20448;-74
2022/05/01 08:49:23;;;;;;;0.40;0.30;;;;;;;15.05;50.75;101783.72;5073181;28;20430;-74
2022/05/01 08:51:51;;;;;;;0.40;0.30;;;;;;;14.86;50.34;101775.59;5073011;28;20457;-74
2022/05/01 08:54:19;;;;;;;0.40;0.30;;;;;;;14.98;50.56;101777.03;5072636;28;20853;-74
2022/05/01 08:56:46;;;;;;;0.40;0.30;;;;;;;14.96;49.67;101781.97;5072681;28;20456;-74
2022/05/01 08:59:14;;;;;;;0.40;0.30;;;;;;;15.11;49.64;101773.53;5073028;28;20491;-73
2022/05/01 09:01:43;;;;;;;0.40;0.30;;;;;;;15.06;50.17;101774.44;5072602;28;20472;-74
2022/05/01 09:04:12;;;;;;;0.40;0.30;;;;;;;15.07;49.78;101777.97;5072931;28;20433;-74
2022/05/01 09:06:40;;;;;;;0.40;0.30;;;;;;;15.04;50.49;101782.09;5072642;28;20947;-74
2022/05/01 09:09:07;;;;;;;0.40;0.30;;;;;;;15.09;50.45;101776.53;5072990;28;20464;-74
2022/05/01 09:14:21;;;;;;;0.40;0.27;;;;;;;15.07;49.26;101775.25;5072733;28;20969;-75
2022/05/01 09:17:09;;;;;;;0.40;0.30;;;;;;;15.00;49.97;101775.63;5072840;28;20445;-74
2022/05/01 09:19:35;;;;;;;0.40;0.30;;;;;;;15.02;50.24;101778.06;5072850;28;20421;-74
2022/05/01 09:22:02;;;;;;;0.40;0.30;;;;;;;14.74;50.53;101772.56;5072678;28;20600;-74
2022/05/01 09:24:29;;;;;;;0.40;0.30;;;;;;;14.50;51.62;101778.16;5072433;28;20890;-74
2022/05/01 09:26:58;;;;;;;0.40;0.20;;;;;;;14.69;52.17;101769.91;5072641;28;20438;-74
2022/05/01 09:29:31;;;;;;;0.40;0.27;;;;;;;14.83;53.37;101773.50;5072725;28;20452;-73
2022/05/01 09:32:00;;;;;;;0.40;0.30;;;;;;;14.83;51.72;101768.03;5072659;28;20465;-71
2022/05/01 09:34:29;;;;;;;0.40;0.30;;;;;;;14.76;51.33;101775.78;5072491;28;20559;-74
2022/05/01 09:36:57;;;;;;;0.40;0.30;;;;;;;14.80;51.20;101774.09;5072539;28;20453;-74
2022/05/01 09:39:25;;;;;;;0.40;0.30;;;;;;;14.73;49.96;101779.09;5072573;28;20481;-74
2022/05/01 09:41:53;;;;;;;0.40;0.30;;;;;;;14.71;50.55;101777.81;5072380;28;20496;-74
2022/05/01 09:44:22;;;;;;;0.40;0.30;;;;;;;14.81;50.99;101772.97;5072434;28;20445;-74
2022/05/01 09:46:50;;;;;;;0.40;0.30;;;;;;;14.81;51.48;101772.16;5072384;28;20438;-74
2022/05/01 09:49:18;;;;;;;0.40;0.30;;;;;;;14.92;51.12;101770.03;5072427;28;20448;-74
2022/05/01 09:51:47;;;;;;;0.40;0.30;;;;;;;15.09;51.07;101773.00;5072017;28;20971;-74
2022/05/01 09:54:19;;;;;;;0.40;0.30;;;;;;;15.17;50.58;101772.31;5072362;28;20520;-73
2022/05/01 09:56:46;;;;;;;0.40;0.30;;;;;;;14.88;50.87;101764.41;5075365;28;20424;-73
2022/05/01 09:59:13;;;;;;;0.40;0.20;;;;;;;15.05;51.14;101766.53;5075753;28;20943;-72
2022/05/01 10:01:54;;;;;;;0.40;0.30;;;;;;;15.29;50.59;101767.16;5075298;28;20472;-73
2022/05/01 10:04:22;;;;;;;0.40;0.30;;;;;;;15.56;50.00;101758.13;5075944;28;20857;-73
2022/05/01 10:06:52;;;;;;;0.40;0.30;;;;;;;15.49;50.06;101765.91;5075464;28;20485;-73
2022/05/01 10:09:19;;;;;;;0.40;0.30;;;;;;;15.35;50.30;101768.66;5075413;28;20441;-73
2022/05/01 10:11:47;;;;;;;0.40;0.30;;;;;;;15.25;50.19;101762.59;5075612;28;20549;-73
2022/05/01 10:14:15;;;;;;;0.40;0.20;;;;;;;15.09;50.09;101760.16;5075604;28;20513;-73
2022/05/01 10:16:43;;;;;;;0.40;0.20;;;;;;;15.29;50.23;101761.69;5075227;28;20989;-74
2022/05/01 10:19:10;;;;;;;0.40;0.30;;;;;;;15.59;49.77;101770.38;5075850;28;20452;-74
2022/05/01 10:21:37;;;;;;;0.40;0.30;;;;;;;15.67;49.33;101756.03;5075615;28;20461;-73
2022/05/01 10:24:05;;;;;;;0.40;0.27;;;;;;;15.69;49.44;101759.25;5075873;28;20445;-73
2022/05/01 10:26:36;;;;;;;0.40;0.30;;;;;;;15.76;50.21;101758.81;5075310;28;20943;-74
2022/05/01 10:29:25;;;;;;;0.40;0.30;;;;;;;16.08;49.02;101766.03;5075617;28;20588;-73
2022/05/01 10:32:26;;;;;;;0.40;0.30;;;;;;;16.31;48.89;101758.66;5075349;28;20472;-74
2022/05/01 10:35:12;;;;;;;0.40;0.30;;;;;;;16.54;48.18;101762.97;5042036;28;20496;-74
2022/05/01 10:38:06;;;;;;;0.40;0.30;;;;;;;16.48;47.50;101764.25;5075075;28;20426;-73
2022/05/01 10:40:33;;;;;;;0.40;0.20;;;;;;;16.40;47.37;101754.84;5047959;28;20511;-74
2022/05/01 10:43:27;;;;;;;0.40;0.27;;;;;;;16.30;47.60;101755.13;5074915;28;20931;-74
2022/05/01 10:45:55;;;;;;;0.40;0.20;;;;;;;16.35;47.89;101755.00;5075087;28;20795;-74
2022/05/01 10:48:37;;;;;;;0.40;0.30;;;;;;;16.26;47.57;101756.06;5075092;28;20452;-73
2022/05/01 10:51:49;;;;;;;0.40;0.30;;;;;;;16.26;48.34;101751.38;5074949;28;20467;-73
2022/05/01 10:54:37;;;;;;;0.40;0.20;;;;;;;16.45;47.82;101761.31;5068271;28;20485;-74
2022/05/01 10:57:16;;;;;;;0.40;0.20;;;;;;;16.39;48.05;101755.97;5074906;28;20434;-74
2022/05/01 10:59:47;;;;;;;0.40;0.27;;;;;;;16.10;48.99;101756.41;5074821;28;20426;-73
2022/05/01 11:02:38;;;;;;;0.40;0.20;;;;;;;15.94;48.53;101749.69;5074300;28;21014;-73
2022/05/01 11:05:08;;;;;;;0.40;0.30;;;;;;;15.46;48.88;101747.44;5070991;28;20832;-73
2022/05/01 11:07:37;;;;;;;0.40;0.23;;;;;;;15.60;49.22;101744.69;5073744;28;20968;-73
2022/05/01 11:10:07;;;;;;;0.40;0.30;;;;;;;15.43;50.06;101747.22;5074582;28;20445;-73
2022/05/01 11:12:35;;;;;;;0.40;0.23;;;;;;;15.66;49.21;101746.19;5074375;28;20460;-73
2022/05/01 11:15:03;;;;;;;0.40;0.20;;;;;;;15.81;49.45;101750.53;5074442;28;20492;-73
2022/05/01 11:17:46;;;;;;;0.40;0.20;;;;;;;15.85;49.21;101740.63;5074535;28;20441;-73
2022/05/01 11:20:32;;;;;;;0.40;0.30;;;;;;;16.02;48.46;101739.94;5073931;28;20453;-73
2022/05/01 11:23:33;;;;;;;0.40;0.20;;;;;;;16.27;48.74;101747.53;5074478;28;20429;-74
2022/05/01 11:26:14;;;;;;;0.40;0.20;;;;;;;16.42;48.80;101748.25;5073985;28;20469;-73
2022/05/01 11:29:08;;;;;;;0.40;0.27;;;;;;;16.06;48.35;101747.19;5074327;28;20429;-73
2022/05/01 11:31:56;;;;;;;0.40;0.30;;;;;;;16.00;48.90;101742.19;5074262;28;20465;-73
2022/05/01 11:34:53;;;;;;;0.40;0.30;;;;;;;15.84;48.83;101747.97;5074146;28;20843;-72
2022/05/01 11:37:23;;;;;;;0.40;0.30;;;;;;;15.96;49.29;101746.63;5073837;28;20992;-73
2022/05/01 11:40:24;;;;;;;0.40;0.30;;;;;;;15.93;48.68;101731.66;5074122;28;20474;-73
2022/05/01 11:42:52;;;;;;;0.40;0.30;;;;;;;16.00;48.44;101742.19;5073921;28;20473;-73
2022/05/01 11:45:19;;;;;;;0.40;0.20;;;;;;;15.93;48.27;101742.59;5073960;28;20441;-73
2022/05/01 11:47:51;;;;;;;0.40;0.20;;;;;;;15.75;48.29;101738.91;5073919;28;20528;-73
2022/05/01 11:50:24;;;;;;;0.40;0.30;;;;;;;15.74;48.22;101740.03;5073905;28;20434;-73
2022/05/01 11:52:54;;;;;;;0.40;0.30;;;;;;;15.90;48.60;101732.28;5073919;28;20516;-73